Time;durP1;ratioP1;P1;durP2;ratioP2;P2;SDS_P1;SDS_P2;PMS_P1;PMS_P2;Temp;Humidity;BMP_temperature;BMP_pressure;BME280_temperature;BME280_humidity;BME280_pressure;Samples;Min_cycle;Max_cycle;Signal;HPM_P1;HPM_P2
2023/06/02 00:01:01;;;;;;;;;;;;;;;17.63;19.60;101789.13;5051422;28;19924;-46
2023/06/02 00:03:30;;;;;;;;;;;;;;;17.58;20.06;101789.75;5052125;28;20483;-44
2023/06/02 00:05:57;;;;;;;;;;;;;;;17.50;19.97;101789.97;5052021;28;20403;-47
2023/06/02 00:08:23;;;;;;;;;;;;;;;17.43;20.19;101797.25;5052504;28;20005;-47
2023/06/02 00:10:48;;;;;;;;;;;;;;;17.34;20.67;101806.63;5072482;28;19952;-47
2023/06/02 00:13:13;;;;;;;;;;;;;;;17.29;20.08;101806.41;5072222;28;19913;-47
2023/06/02 00:15:40;;;;;;;;;;;;;;;17.31;19.96;101801.59;5072275;28;19913;-45
2023/06/02 00:18:05;;;;;;;;;;;;;;;17.26;20.44;101810.38;5072362;28;20345;-48
2023/06/02 00:20:31;;;;;;;;;;;;;;;17.23;20.39;101808.06;5072362;28;19924;-43
2023/06/02 00:22:57;;;;;;;;;;;;;;;17.26;20.42;101809.56;5054142;28;20416;-44
2023/06/02 00:25:22;;;;;;;;;;;;;;;17.16;20.52;101802.66;5072108;28;19936;-50
2023/06/02 00:27:48;;;;;;;;;;;;;;;17.06;20.74;101802.19;5072715;28;19912;-50
2023/06/02 00:30:13;;;;;;;;;;;;;;;17.00;20.80;101792.97;5076380;28;20050;-48
2023/06/02 00:32:38;;;;;;;;;;;;;;;16.96;20.78;101802.56;5062710;28;20003;-46
2023/06/02 00:35:04;;;;;;;;;;;;;;;16.95;20.58;101806.31;5056352;28;19920;-43
2023/06/02 00:37:29;;;;;;;;;;;;;;;16.91;20.43;101801.50;5056203;28;20077;-45
2023/06/02 00:39:55;;;;;;;;;;;;;;;16.81;20.92;101805.41;5055747;28;19921;-47
2023/06/02 00:42:21;;;;;;;;;;;;;;;16.64;21.67;101804.91;5056303;28;19927;-46
2023/06/02 00:44:46;;;;;;;;;;;;;;;16.63;20.67;101813.25;5056188;28;20357;-50
2023/06/02 00:47:12;;;;;;;;;;;;;;;16.62;20.98;101815.13;5055892;28;19912;-46
2023/06/02 00:49:38;;;;;;;;;;;;;;;16.59;21.10;101818.22;5055812;28;19963;-44
2023/06/02 00:52:04;;;;;;;;;;;;;;;16.63;20.67;101819.50;5037737;28;19916;-44
2023/06/02 00:54:29;;;;;;;;;;;;;;;16.58;21.10;101830.09;5055501;28;19996;-50
2023/06/02 00:56:55;;;;;;;;;;;;;;;16.47;21.12;101838.81;5055687;28;19913;-46
2023/06/02 00:59:24;;;;;;;;;;;;;;;16.40;20.76;101837.91;5055396;28;20300;-47
2023/06/02 01:01:49;;;;;;;;;;;;;;;16.36;21.35;101842.06;5055120;28;19917;-46
2023/06/02 01:04:15;;;;;;;;;;;;;;;16.32;21.11;101843.50;5055706;28;20433;-47
2023/06/02 01:06:41;;;;;;;;;;;;;;;16.36;21.64;101840.22;5055715;28;19912;-45
2023/06/02 01:09:09;;;;;;;;;;;;;;;16.37;21.46;101838.34;5062009;28;20380;-44
2023/06/02 01:11:34;;;;;;;;;;;;;;;16.32;21.59;101836.19;5075197;28;19912;-45
2023/06/02 01:13:59;;;;;;;;;;;;;;;16.26;21.45;101845.13;5075559;28;19919;-44
2023/06/02 01:16:26;;;;;;;;;;;;;;;16.18;21.54;101842.59;5075648;28;19916;-44
2023/06/02 01:18:52;;;;;;;;;;;;;;;16.16;21.43;101842.78;5075689;28;19913;-43
2023/06/02 01:21:23;;;;;;;;;;;;;;;16.17;21.53;101849.03;5075556;28;19923;-45
2023/06/02 01:23:53;;;;;;;;;;;;;;;16.14;21.24;101846.69;5075717;28;19912;-47
2023/06/02 01:26:18;;;;;;;;;;;;;;;16.11;21.40;101847.09;5075365;28;19913;-49
2023/06/02 01:28:43;;;;;;;;;;;;;;;16.03;21.52;101848.94;5063094;28;19912;-47
2023/06/02 01:31:20;;;;;;;;;;;;;;;15.90;21.82;101862.38;5037665;28;19913;-48
2023/06/02 01:33:51;;;;;;;;;;;;;;;15.75;21.98;101867.00;5055313;28;19955;-47
2023/06/02 01:36:20;;;;;;;;;;;;;;;15.68;21.93;101867.75;5055423;28;20074;-46
2023/06/02 01:38:46;;;;;;;;;;;;;;;15.66;22.27;101871.69;5055061;28;19913;-46
2023/06/02 01:41:13;;;;;;;;;;;;;;;15.67;22.13;101870.63;5054638;28;20039;-43
2023/06/02 01:43:39;;;;;;;;;;;;;;;15.61;22.22;101872.25;5055337;28;19920;-46
2023/06/02 01:46:05;;;;;;;;;;;;;;;15.55;22.49;101873.03;5055130;28;19913;-47
2023/06/02 01:48:30;;;;;;;;;;;;;;;15.50;22.49;101872.75;5055116;28;20004;-45
2023/06/02 01:50:56;;;;;;;;;;;;;;;15.49;22.38;101881.91;5037101;28;19963;-44
2023/06/02 01:53:23;;;;;;;;;;;;;;;15.51;22.90;101873.59;5054990;28;19940;-45
2023/06/02 01:55:49;;;;;;;;;;;;;;;15.52;22.76;101876.09;5054986;28;20357;-44
2023/06/02 01:58:14;;;;;;;;;;;;;;;15.48;22.95;101877.53;5054902;28;20364;-46
2023/06/02 02:00:39;;;;;;;;;;;;;;;15.45;22.77;101886.03;5054754;28;19916;-45
2023/06/02 02:03:05;;;;;;;;;;;;;;;15.41;22.70;101882.03;5054491;28;19913;-46
2023/06/02 02:05:30;;;;;;;;;;;;;;;15.34;23.18;101881.09;5037038;28;19913;-49
2023/06/02 02:07:57;;;;;;;;;;;;;;;15.28;23.21;101886.28;5054935;28;19916;-49
2023/06/02 02:10:22;;;;;;;;;;;;;;;15.24;23.44;101886.81;5071645;28;19912;-46
2023/06/02 02:12:48;;;;;;;;;;;;;;;15.22;23.07;101897.00;5071401;28;19932;-44
2023/06/02 02:15:13;;;;;;;;;;;;;;;15.10;23.15;101892.06;5036622;28;19917;-46
2023/06/02 02:17:45;;;;;;;;;;;;;;;15.12;22.96;101905.41;5054482;28;19920;-46
2023/06/02 02:20:11;;;;;;;;;;;;;;;15.21;22.95;101900.72;5054506;28;19923;-48
2023/06/02 02:22:36;;;;;;;;;;;;;;;15.18;22.78;101898.41;5054578;28;19913;-44
2023/06/02 02:25:02;;;;;;;;;;;;;;;15.23;23.27;101913.06;5054412;28;19920;-44
2023/06/02 02:27:27;;;;;;;;;;;;;;;15.20;23.67;101908.00;5054394;28;19917;-44
2023/06/02 02:29:53;;;;;;;;;;;;;;;15.16;23.59;101898.59;5054410;28;19912;-48
2023/06/02 02:32:18;;;;;;;;;;;;;;;15.15;23.16;101896.91;5054453;28;19913;-47
2023/06/02 02:34:46;;;;;;;;;;;;;;;15.16;23.95;101904.00;5054218;28;19920;-48
2023/06/02 02:37:12;;;;;;;;;;;;;;;15.09;23.74;101905.78;5054378;28;19913;-47
2023/06/02 02:39:37;;;;;;;;;;;;;;;15.01;23.98;101920.25;5053905;28;20016;-47
2023/06/02 02:42:03;;;;;;;;;;;;;;;15.03;24.00;101918.19;5054190;28;20339;-50
2023/06/02 02:44:28;;;;;;;;;;;;;;;15.05;23.42;101920.72;5054025;28;19913;-42
2023/06/02 02:46:53;;;;;;;;;;;;;;;14.98;24.41;101922.50;5053925;28;19917;-49
2023/06/02 02:49:19;;;;;;;;;;;;;;;14.94;24.58;101932.03;5053697;28;19913;-43
2023/06/02 02:51:45;;;;;;;;;;;;;;;14.86;24.05;101936.50;5053933;28;19913;-47
2023/06/02 02:54:10;;;;;;;;;;;;;;;14.81;24.25;101938.06;5054186;28;20360;-44
2023/06/02 02:56:36;;;;;;;;;;;;;;;14.86;24.42;101933.78;5056597;28;19912;-43
2023/06/02 02:59:02;;;;;;;;;;;;;;;14.90;23.83;101926.13;5055147;28;19929;-45
2023/06/02 03:01:29;;;;;;;;;;;;;;;14.96;24.25;101930.78;5053042;28;19917;-45
2023/06/02 03:03:56;;;;;;;;;;;;;;;15.01;24.10;101931.09;5054327;28;19976;-43
2023/06/02 03:06:22;;;;;;;;;;;;;;;15.02;24.29;101930.03;5053967;28;20366;-43
2023/06/02 03:08:47;;;;;;;;;;;;;;;14.94;24.21;101940.97;5057741;28;19923;-44
2023/06/02 03:11:13;;;;;;;;;;;;;;;14.89;24.34;101944.25;5073666;28;20351;-45
2023/06/02 03:13:38;;;;;;;;;;;;;;;14.95;24.40;101941.78;5073557;28;19958;-44
2023/06/02 03:16:04;;;;;;;;;;;;;;;14.92;24.51;101951.13;5073756;28;19913;-44
2023/06/02 03:18:29;;;;;;;;;;;;;;;14.95;24.06;101950.78;5073632;28;19951;-45
2023/06/02 03:20:55;;;;;;;;;;;;;;;14.96;24.79;101951.59;5063839;28;19956;-45
2023/06/02 03:23:21;;;;;;;;;;;;;;;15.03;24.74;101947.13;5053387;28;19995;-47
2023/06/02 03:25:46;;;;;;;;;;;;;;;15.07;24.48;101940.31;5035522;28;19963;-44
2023/06/02 03:28:11;;;;;;;;;;;;;;;15.10;24.60;101939.94;5053094;28;19913;-50
2023/06/02 03:30:37;;;;;;;;;;;;;;;15.09;25.02;101946.38;5052935;28;19916;-45
2023/06/02 03:33:02;;;;;;;;;;;;;;;15.10;24.96;101946.19;5053238;28;19912;-51
2023/06/02 03:35:27;;;;;;;;;;;;;;;15.03;24.54;101958.78;5052893;28;19912;-43
2023/06/02 03:37:52;;;;;;;;;;;;;;;14.95;24.84;101958.03;5053017;28;20307;-43
2023/06/02 03:40:18;;;;;;;;;;;;;;;14.92;24.82;101961.97;5035132;28;20018;-46
2023/06/02 03:42:43;;;;;;;;;;;;;;;14.92;25.21;101959.25;5035145;28;19924;-47
2023/06/02 03:45:09;;;;;;;;;;;;;;;14.97;25.12;101958.69;5034954;28;19912;-46
2023/06/02 03:47:34;;;;;;;;;;;;;;;15.03;24.89;101957.97;5034972;28;19913;-46
2023/06/02 03:50:03;;;;;;;;;;;;;;;15.09;24.85;101958.03;5053139;28;19920;-48
2023/06/02 03:52:31;;;;;;;;;;;;;;;15.07;25.32;101965.50;5052911;28;19913;-49
2023/06/02 03:54:57;;;;;;;;;;;;;;;15.04;25.38;101963.19;5034896;28;20277;-45
2023/06/02 03:57:22;;;;;;;;;;;;;;;15.01;24.76;101962.72;5052823;28;19939;-45
2023/06/02 03:59:48;;;;;;;;;;;;;;;14.99;24.30;101962.03;5052555;28;20017;-48
2023/06/02 04:02:13;;;;;;;;;;;;;;;15.02;24.61;101967.09;5051797;28;19924;-45
2023/06/02 04:04:38;;;;;;;;;;;;;;;14.98;24.80;101968.50;5052509;28;19919;-49
2023/06/02 04:07:04;;;;;;;;;;;;;;;14.98;24.30;101982.84;5052623;28;19919;-45
2023/06/02 04:09:29;;;;;;;;;;;;;;;15.00;24.30;101967.25;5062200;28;19912;-47
2023/06/02 04:11:54;;;;;;;;;;;;;;;15.03;24.77;101971.47;5072552;28;19954;-48
2023/06/02 04:14:20;;;;;;;;;;;;;;;15.01;24.08;101968.13;5072510;28;20302;-45
2023/06/02 04:16:45;;;;;;;;;;;;;;;15.07;24.20;101970.91;5048062;28;19913;-46
2023/06/02 04:19:10;;;;;;;;;;;;;;;15.11;24.13;101971.38;5052277;28;19913;-46
2023/06/02 04:21:35;;;;;;;;;;;;;;;15.17;23.96;101978.75;5052277;28;20380;-48
2023/06/02 04:24:01;;;;;;;;;;;;;;;15.16;24.58;101981.66;5052235;28;19983;-45
2023/06/02 04:26:26;;;;;;;;;;;;;;;15.17;24.68;101984.16;5052185;28;19923;-43
2023/06/02 04:28:51;;;;;;;;;;;;;;;15.26;23.57;101982.19;5052382;28;19919;-45
2023/06/02 04:31:26;;;;;;;;;;;;;;;15.36;23.92;101976.50;5052593;28;19917;-46
2023/06/02 04:33:55;;;;;;;;;;;;;;;15.44;24.16;101981.81;5052381;28;20362;-43
2023/06/02 04:36:20;;;;;;;;;;;;;;;15.53;23.54;101986.09;5051569;28;19916;-43
2023/06/02 04:38:46;;;;;;;;;;;;;;;15.55;23.29;101984.03;5051687;28;19913;-48
2023/06/02 04:41:11;;;;;;;;;;;;;;;15.49;23.94;101980.22;5034313;28;19916;-48
2023/06/02 04:43:37;;;;;;;;;;;;;;;15.47;23.81;101979.59;5052271;28;19967;-45
2023/06/02 04:46:06;;;;;;;;;;;;;;;15.50;23.76;101986.47;5052505;28;20007;-42
2023/06/02 04:48:31;;;;;;;;;;;;;;;15.54;23.68;101985.06;5052394;28;20011;-45
2023/06/02 04:50:56;;;;;;;;;;;;;;;15.59;23.82;101982.63;5052022;28;20015;-43
2023/06/02 04:53:22;;;;;;;;;;;;;;;15.63;23.40;101989.34;5034241;28;20008;-44
2023/06/02 04:55:47;;;;;;;;;;;;;;;15.64;23.75;101984.78;5051883;28;19917;-45
2023/06/02 04:58:13;;;;;;;;;;;;;;;15.63;23.92;101989.34;5051755;28;20399;-45
2023/06/02 05:00:38;;;;;;;;;;;;;;;15.72;23.50;101989.25;5051897;28;20445;-45
2023/06/02 05:03:03;;;;;;;;;;;;;;;15.75;23.37;101981.63;5052168;28;19958;-46
2023/06/02 05:05:29;;;;;;;;;;;;;;;15.75;23.48;101984.31;5052571;28;20477;-43
2023/06/02 05:07:54;;;;;;;;;;;;;;;15.66;23.71;101985.44;5053341;28;19956;-48
2023/06/02 05:10:19;;;;;;;;;;;;;;;15.75;23.49;101986.16;5035830;28;19995;-46
2023/06/02 05:12:47;;;;;;;;;;;;;;;15.80;23.30;101981.03;5068033;28;19913;-47
2023/06/02 05:15:12;;;;;;;;;;;;;;;15.88;22.96;101983.63;5054873;28;20043;-46
2023/06/02 05:17:38;;;;;;;;;;;;;;;15.95;22.68;101979.09;5055696;28;20011;-45
2023/06/02 05:20:04;;;;;;;;;;;;;;;15.97;23.04;101978.91;5055950;28;19986;-45
2023/06/02 05:22:29;;;;;;;;;;;;;;;15.99;23.01;101979.56;5055729;28;20400;-47
2023/06/02 05:24:55;;;;;;;;;;;;;;;16.06;22.88;101981.34;5055479;28;19913;-44
2023/06/02 05:27:20;;;;;;;;;;;;;;;16.06;22.73;101978.63;5054900;28;19952;-44
2023/06/02 05:29:45;;;;;;;;;;;;;;;16.04;22.69;101977.94;5054933;28;20007;-45
2023/06/02 05:32:11;;;;;;;;;;;;;;;16.08;23.03;101972.16;5054757;28;20369;-45
2023/06/02 05:34:36;;;;;;;;;;;;;;;16.09;22.65;101977.38;5054819;28;19919;-46
2023/06/02 05:37:02;;;;;;;;;;;;;;;16.14;22.65;101976.78;5055057;28;19944;-44
2023/06/02 05:39:27;;;;;;;;;;;;;;;16.16;22.35;101972.03;5055181;28;20537;-43
2023/06/02 05:41:52;;;;;;;;;;;;;;;16.20;22.26;101976.03;5054764;28;19983;-47
2023/06/02 05:44:17;;;;;;;;;;;;;;;16.18;22.47;101975.41;5054737;28;19932;-50
2023/06/02 05:46:43;;;;;;;;;;;;;;;16.24;22.38;101974.63;5054612;28;19963;-44
2023/06/02 05:49:08;;;;;;;;;;;;;;;16.32;22.14;101976.34;5054973;28;19978;-44
2023/06/02 05:51:33;;;;;;;;;;;;;;;16.32;22.19;101974.47;5054789;28;19966;-44
2023/06/02 05:54:00;;;;;;;;;;;;;;;16.29;22.03;101976.72;5054756;28;20011;-48
2023/06/02 05:56:25;;;;;;;;;;;;;;;16.40;21.92;101970.78;5054857;28;20012;-49
2023/06/02 05:58:50;;;;;;;;;;;;;;;16.38;22.18;101971.00;5054551;28;19960;-47
2023/06/02 06:01:16;;;;;;;;;;;;;;;16.33;22.11;101970.72;5054000;28;20366;-44
2023/06/02 06:03:41;;;;;;;;;;;;;;;16.51;21.48;101969.41;5054919;28;19936;-44
2023/06/02 06:06:08;;;;;;;;;;;;;;;16.57;21.96;101971.38;5054711;28;19917;-44
2023/06/02 06:08:33;;;;;;;;;;;;;;;16.55;22.08;101970.72;5056478;28;20257;-50
2023/06/02 06:10:58;;;;;;;;;;;;;;;16.71;21.79;101964.97;5054819;28;19919;-45
2023/06/02 06:13:24;;;;;;;;;;;;;;;16.73;22.03;101962.06;5054886;28;20278;-46
2023/06/02 06:15:49;;;;;;;;;;;;;;;16.70;21.61;101955.19;5056221;28;19913;-44
2023/06/02 06:18:15;;;;;;;;;;;;;;;16.73;21.73;101959.38;5055667;28;20285;-45
2023/06/02 06:20:43;;;;;;;;;;;;;;;16.77;21.55;101958.78;5054780;28;19956;-46
2023/06/02 06:23:09;;;;;;;;;;;;;;;16.86;21.35;101955.94;5054529;28;19913;-46
2023/06/02 06:25:34;;;;;;;;;;;;;;;16.92;21.61;101958.72;5054081;28;19919;-47
2023/06/02 06:28:00;;;;;;;;;;;;;;;16.99;21.41;101959.59;5053032;28;19917;-45
2023/06/02 06:30:25;;;;;;;;;;;;;;;17.02;21.15;101964.59;5054619;28;20318;-44
2023/06/02 06:32:50;;;;;;;;;;;;;;;17.01;21.18;101959.38;5054258;28;20011;-44
2023/06/02 06:35:15;;;;;;;;;;;;;;;17.09;21.01;101958.38;5054234;28;19986;-45
2023/06/02 06:37:41;;;;;;;;;;;;;;;17.15;20.82;101958.41;5054679;28;19917;-44
2023/06/02 06:40:06;;;;;;;;;;;;;;;17.14;20.94;101955.88;5053790;28;19916;-44
2023/06/02 06:42:32;;;;;;;;;;;;;;;17.20;21.16;101949.69;5054059;28;19913;-43
2023/06/02 06:44:57;;;;;;;;;;;;;;;17.16;21.15;101946.53;5054157;28;19931;-47
2023/06/02 06:47:22;;;;;;;;;;;;;;;17.30;21.02;101949.31;5054255;28;19913;-47
2023/06/02 06:49:49;;;;;;;;;;;;;;;17.19;21.07;101943.38;5050048;28;20512;-44
2023/06/02 06:52:15;;;;;;;;;;;;;;;17.29;20.85;101947.63;5033997;28;19917;-43
2023/06/02 06:54:40;;;;;;;;;;;;;;;17.30;20.74;101950.13;5033883;28;20366;-49
2023/06/02 06:57:05;;;;;;;;;;;;;;;17.35;20.62;101952.25;5033674;28;19917;-48
2023/06/02 06:59:31;;;;;;;;;;;;;;;17.39;20.61;101956.22;5033669;28;19949;-43
2023/06/02 07:01:56;;;;;;;;;;;;;;;17.47;20.93;101950.63;5032936;28;19982;-44
2023/06/02 07:04:21;;;;;;;;;;;;;;;17.56;20.69;101948.56;5037895;28;20012;-43
2023/06/02 07:06:47;;;;;;;;;;;;;;;17.60;20.59;101950.66;5045955;28;19932;-50
2023/06/02 07:09:12;;;;;;;;;;;;;;;17.64;20.44;101953.81;5048421;28;19917;-44
2023/06/02 07:11:37;;;;;;;;;;;;;;;17.56;20.45;101952.13;5036086;28;19916;-44
2023/06/02 07:14:04;;;;;;;;;;;;;;;17.65;20.50;101947.34;5053584;28;20047;-49
2023/06/02 07:16:29;;;;;;;;;;;;;;;17.68;20.41;101946.09;5053628;28;20399;-46
2023/06/02 07:18:54;;;;;;;;;;;;;;;17.74;20.74;101948.00;5035138;28;20007;-47
2023/06/02 07:21:20;;;;;;;;;;;;;;;17.64;20.89;101942.09;5053419;28;20007;-47
2023/06/02 07:23:45;;;;;;;;;;;;;;;17.71;21.08;101941.09;5053503;28;20857;-46
2023/06/02 07:26:10;;;;;;;;;;;;;;;17.71;21.18;101941.09;5053144;28;20262;-45
2023/06/02 07:28:37;;;;;;;;;;;;;;;17.82;21.09;101941.53;5052428;28;19919;-45
2023/06/02 07:31:03;;;;;;;;;;;;;;;17.94;20.48;101946.19;5052398;28;19913;-45
2023/06/02 07:33:28;;;;;;;;;;;;;;;17.98;20.10;101938.47;5052153;28;20277;-48
2023/06/02 07:35:53;;;;;;;;;;;;;;;18.01;20.28;101938.03;5033894;28;20234;-48
2023/06/02 07:38:18;;;;;;;;;;;;;;;18.05;19.88;101943.91;5050749;28;20012;-45
2023/06/02 07:40:44;;;;;;;;;;;;;;;18.06;19.88;101940.16;5051548;28;19944;-49
2023/06/02 07:43:09;;;;;;;;;;;;;;;18.07;19.61;101939.94;5052343;28;20215;-44
2023/06/02 07:45:35;;;;;;;;;;;;;;;18.02;20.92;101937.00;5053254;28;20448;-44
2023/06/02 07:48:02;;;;;;;;;;;;;;;17.97;22.44;101937.63;5052673;28;19913;-46
2023/06/02 07:50:27;;;;;;;;;;;;;;;17.91;21.11;101935.72;5052177;28;20392;-45
2023/06/02 07:52:54;;;;;;;;;;;;;;;17.90;21.41;101941.38;5053127;28;20341;-47
2023/06/02 07:55:20;;;;;;;;;;;;;;;17.81;21.42;101932.53;5052943;28;19913;-45
2023/06/02 07:57:45;;;;;;;;;;;;;;;17.74;21.23;101924.38;5052663;28;20023;-45
2023/06/02 08:00:12;;;;;;;;;;;;;;;17.80;21.59;101922.72;5052798;28;20599;-50
2023/06/02 08:02:37;;;;;;;;;;;;;;;17.90;21.22;101919.63;5051639;28;19912;-44
2023/06/02 08:05:02;;;;;;;;;;;;;;;17.99;21.16;101921.94;5052757;28;19924;-47
2023/06/02 08:07:27;;;;;;;;;;;;;;;17.86;21.15;101919.19;5052746;28;20023;-44
2023/06/02 08:09:53;;;;;;;;;;;;;;;17.80;21.27;101906.41;5065714;28;20003;-47
2023/06/02 08:12:20;;;;;;;;;;;;;;;18.03;21.82;101911.47;5072592;28;20341;-44
2023/06/02 08:14:45;;;;;;;;;;;;;;;18.22;21.36;101919.84;5072541;28;20428;-47
2023/06/02 08:17:10;;;;;;;;;;;;;;;18.12;21.18;101910.22;5072690;28;19999;-44
2023/06/02 08:19:36;;;;;;;;;;;;;;;18.11;21.44;101903.13;5072658;28;20372;-47
2023/06/02 08:22:02;;;;;;;;;;;;;;;17.87;21.21;101901.88;5053267;28;19924;-45
2023/06/02 08:24:28;;;;;;;;;;;;;;;18.05;21.16;101894.97;5052398;28;19920;-48
2023/06/02 08:26:54;;;;;;;;;;;;;;;18.05;21.40;101900.41;5052518;28;19920;-46
2023/06/02 08:29:20;;;;;;;;;;;;;;;18.12;21.14;101899.34;5052515;28;20050;-44
2023/06/02 08:31:46;;;;;;;;;;;;;;;18.06;21.30;101891.22;5052655;28;19920;-45
2023/06/02 08:34:11;;;;;;;;;;;;;;;18.12;21.19;101899.34;5051083;28;19913;-44
2023/06/02 08:36:36;;;;;;;;;;;;;;;18.21;21.24;101891.00;5052476;28;19917;-48
2023/06/02 08:39:06;;;;;;;;;;;;;;;18.67;20.43;101877.34;5052735;28;20308;-44
2023/06/02 08:41:35;;;;;;;;;;;;;;;18.68;20.43;101878.19;5052641;28;19924;-45
2023/06/02 08:44:00;;;;;;;;;;;;;;;18.79;20.46;101876.69;5052258;28;20004;-47
2023/06/02 08:46:25;;;;;;;;;;;;;;;18.67;20.55;101871.91;5052495;28;19952;-45
2023/06/02 08:48:55;;;;;;;;;;;;;;;18.66;20.95;101885.72;5035510;28;20353;-46
2023/06/02 08:51:24;;;;;;;;;;;;;;;18.68;21.00;101879.00;5038680;28;19913;-46
2023/06/02 08:53:50;;;;;;;;;;;;;;;18.84;20.82;101874.19;5056460;28;19914;-47
2023/06/02 08:56:16;;;;;;;;;;;;;;;18.97;20.48;101879.59;5056397;28;20373;-48
2023/06/02 08:58:43;;;;;;;;;;;;;;;18.98;20.78;101878.56;5055971;28;20007;-48
2023/06/02 09:01:09;;;;;;;;;;;;;;;19.01;20.66;101877.28;5055335;28;20007;-48
2023/06/02 09:03:34;;;;;;;;;;;;;;;18.86;20.85;101874.81;5056305;28;20352;-45
2023/06/02 09:05:59;;;;;;;;;;;;;;;19.02;20.86;101863.47;5056217;28;19913;-45
2023/06/02 09:08:25;;;;;;;;;;;;;;;19.32;20.39;101871.06;5056609;28;19913;-44
2023/06/02 09:10:50;;;;;;;;;;;;;;;19.29;20.11;101864.16;5076399;28;20026;-45
2023/06/02 09:13:36;;;;;;;;;;;;;;;19.35;20.58;101851.56;5076468;28;19958;-43
2023/06/02 09:16:03;;;;;;;;;;;;;;;19.59;20.85;101860.00;5075037;28;20011;-44
2023/06/02 09:18:29;;;;;;;;;;;;;;;19.51;20.13;101864.66;5056024;28;19917;-44
2023/06/02 09:20:58;;;;;;;;;;;;;;;19.23;20.66;101851.41;5056173;28;20004;-43
2023/06/02 09:23:39;;;;;;;;;;;;;;;19.03;19.94;101850.66;5055950;28;19913;-45
2023/06/02 09:26:16;;;;;;;;;;;;;;;19.34;19.76;101844.44;5054434;28;20364;-45
2023/06/02 09:28:42;;;;;;;;;;;;;;;19.70;19.86;101845.69;5055743;28;20292;-47
2023/06/02 09:31:07;;;;;;;;;;;;;;;19.49;19.50;101838.69;5055469;28;19923;-49
2023/06/02 09:33:34;;;;;;;;;;;;;;;19.41;19.73;101841.66;5055564;28;19913;-46
2023/06/02 09:35:59;;;;;;;;;;;;;;;19.61;19.80;101852.44;5055692;28;20006;-49
2023/06/02 09:38:25;;;;;;;;;;;;;;;19.96;19.14;101855.56;5055186;28;19913;-50
2023/06/02 09:40:52;;;;;;;;;;;;;;;19.98;18.88;101841.72;5055455;28;19962;-49
2023/06/02 09:43:28;;;;;;;;;;;;;;;20.06;19.02;101841.47;5037482;28;19917;-48
2023/06/02 09:45:53;;;;;;;;;;;;;;;20.19;18.87;101826.84;5055386;28;19913;-46
2023/06/02 09:48:19;;;;;;;;;;;;;;;20.17;19.02;101821.63;5055255;28;19920;-51
2023/06/02 09:50:44;;;;;;;;;;;;;;;20.26;18.46;101827.63;5055097;28;19919;-49
2023/06/02 09:53:13;;;;;;;;;;;;;;;20.28;18.56;101833.66;5055018;28;20007;-47
2023/06/02 09:55:39;;;;;;;;;;;;;;;20.40;18.49;101837.34;5055273;28;20028;-45
2023/06/02 09:58:05;;;;;;;;;;;;;;;20.19;18.71;101835.88;5037000;28;20008;-48
2023/06/02 10:00:31;;;;;;;;;;;;;;;20.28;18.64;101826.34;5053407;28;19916;-50
2023/06/02 10:02:56;;;;;;;;;;;;;;;20.24;19.04;101830.56;5054094;28;19917;-50
2023/06/02 10:05:22;;;;;;;;;;;;;;;20.34;18.37;101826.47;5055411;28;19913;-49
2023/06/02 10:07:53;;;;;;;;;;;;;;;20.62;18.67;101806.91;5054971;28;20073;-44
2023/06/02 10:10:30;;;;;;;;;;;;;;;20.90;18.21;101811.81;5071575;28;19913;-44
2023/06/02 10:13:14;;;;;;;;;;;;;;;21.19;17.72;101812.91;5068506;28;19920;-47
2023/06/02 10:15:47;;;;;;;;;;;;;;;21.34;17.74;101807.03;5054697;28;19913;-47
2023/06/02 10:18:21;;;;;;;;;;;;;;;21.42;17.52;101809.41;5054677;28;19966;-45
2023/06/02 10:20:59;;;;;;;;;;;;;;;21.45;17.77;101805.41;5036609;28;20019;-45
2023/06/02 10:23:46;;;;;;;;;;;;;;;21.67;17.83;101800.22;5054673;28;20000;-45
2023/06/02 10:26:21;;;;;;;;;;;;;;;21.71;17.20;101798.72;5020561;28;20361;-49
2023/06/02 10:28:47;;;;;;;;;;;;;;;21.92;17.13;101796.47;5054635;28;19982;-48
2023/06/02 10:31:13;;;;;;;;;;;;;;;22.19;17.25;101794.06;5054601;28;19913;-48
2023/06/02 10:33:45;;;;;;;;;;;;;;;22.58;17.00;101798.00;5054336;28;19918;-46
2023/06/02 10:36:13;;;;;;;;;;;;;;;22.59;16.85;101790.59;5053854;28;19921;-46
2023/06/02 10:38:38;;;;;;;;;;;;;;;22.64;17.32;101787.13;5054094;28;19928;-47
2023/06/02 10:41:04;;;;;;;;;;;;;;;22.78;16.37;101774.81;5053947;28;19917;-48
2023/06/02 10:43:31;;;;;;;;;;;;;;;23.00;16.65;101770.34;5054008;28;19913;-45
2023/06/02 10:46:29;;;;;;;;;;;;;;;23.08;16.12;101765.56;5035983;28;19913;-45
2023/06/02 10:48:54;;;;;;;;;;;;;;;23.03;16.21;101771.78;4998675;28;20322;-50
2023/06/02 10:51:20;;;;;;;;;;;;;;;23.50;16.29;101766.03;5054016;28;19912;-44
2023/06/02 10:54:05;;;;;;;;;;;;;;;23.62;16.01;101765.97;5054172;28;19913;-48
2023/06/02 10:56:40;;;;;;;;;;;;;;;23.53;15.12;101776.53;5054180;28;19936;-46
2023/06/02 10:59:06;;;;;;;;;;;;;;;23.78;15.70;101769.78;5053693;28;19928;-49
2023/06/02 11:01:44;;;;;;;;;;;;;;;24.00;15.46;101782.78;5052884;28;20007;-49
2023/06/02 11:04:42;;;;;;;;;;;;;;;24.15;15.04;101766.53;5053873;28;19913;-44
2023/06/02 11:07:17;;;;;;;;;;;;;;;24.45;15.44;101757.03;5041814;28;19916;-50
2023/06/02 11:09:43;;;;;;;;;;;;;;;24.73;14.87;101753.28;5054406;28;20004;-50
2023/06/02 11:12:09;;;;;;;;;;;;;;;25.00;14.73;101757.97;5035698;28;20374;-46
2023/06/02 11:14:53;;;;;;;;;;;;;;;25.28;14.19;101771.47;5053756;28;19913;-47
2023/06/02 11:17:28;;;;;;;;;;;;;;;25.60;14.20;101756.91;5035723;28;20011;-51
2023/06/02 11:19:54;;;;;;;;;;;;;;;25.42;13.64;101762.78;5053312;28;19913;-48
2023/06/02 11:22:19;;;;;;;;;;;;;;;25.55;14.22;101756.03;5053014;28;19912;-45
2023/06/02 11:24:45;;;;;;;;;;;;;;;25.59;14.18;101757.97;5052852;28;19962;-45
2023/06/02 11:27:10;;;;;;;;;;;;;;;25.83;13.91;101758.44;5053447;28;19979;-48
2023/06/02 11:29:36;;;;;;;;;;;;;;;25.84;13.60;101756.53;5053030;28;20365;-45
2023/06/02 11:32:02;;;;;;;;;;;;;;;25.92;13.09;101755.19;5053182;28;19935;-46
2023/06/02 11:34:28;;;;;;;;;;;;;;;26.24;13.79;101752.38;5052798;28;19925;-45
2023/06/02 11:36:54;;;;;;;;;;;;;;;26.36;13.52;101747.47;5053061;28;20376;-45
2023/06/02 11:39:19;;;;;;;;;;;;;;;26.59;13.24;101745.38;5053033;28;20009;-49
2023/06/02 11:41:57;;;;;;;;;;;;;;;26.87;12.89;101737.75;5052971;28;19917;-45
2023/06/02 11:44:22;;;;;;;;;;;;;;;26.91;13.17;101734.16;5053142;28;19912;-45
2023/06/02 11:46:48;;;;;;;;;;;;;;;27.02;12.41;101737.78;5034944;28;19924;-52
2023/06/02 11:49:14;;;;;;;;;;;;;;;27.11;12.54;101733.38;5052889;28;19912;-49
2023/06/02 11:51:39;;;;;;;;;;;;;;;27.17;12.88;101734.22;5052933;28;20373;-49
2023/06/02 11:54:07;;;;;;;;;;;;;;;27.24;12.19;101732.81;5053147;28;19996;-48
2023/06/02 11:56:32;;;;;;;;;;;;;;;27.18;12.26;101736.69;5052891;28;19913;-46
2023/06/02 11:58:57;;;;;;;;;;;;;;;27.40;12.42;101730.94;5052780;28;19931;-46
2023/06/02 12:01:23;;;;;;;;;;;;;;;27.41;12.17;101727.09;5052005;28;20020;-51
2023/06/02 12:04:05;;;;;;;;;;;;;;;27.84;12.44;101728.69;5052818;28;19913;-46
2023/06/02 12:06:31;;;;;;;;;;;;;;;27.81;11.81;101733.66;5052743;28;19916;-49
2023/06/02 12:09:09;;;;;;;;;;;;;;;28.29;11.75;101726.94;5058082;28;19913;-47
2023/06/02 12:11:35;;;;;;;;;;;;;;;28.64;11.55;101709.38;5072865;28;19958;-51
2023/06/02 12:14:01;;;;;;;;;;;;;;;28.88;11.11;101703.13;5072768;28;19919;-48
2023/06/02 12:16:27;;;;;;;;;;;;;;;29.16;10.78;101712.66;5072495;28;19912;-48
2023/06/02 12:18:54;;;;;;;;;;;;;;;29.01;10.61;101712.72;5072647;28;19920;-49
2023/06/02 12:21:20;;;;;;;;;;;;;;;29.23;10.87;101709.53;5072813;28;19970;-50
2023/06/02 12:23:46;;;;;;;;;;;;;;;29.53;11.20;101712.03;5071534;28;19982;-51
2023/06/02 12:26:11;;;;;;;;;;;;;;;29.84;11.06;101702.59;5072444;28;20373;-47
2023/06/02 12:28:38;;;;;;;;;;;;;;;30.17;10.77;101717.47;5072789;28;19912;-48
2023/06/02 12:31:03;;;;;;;;;;;;;;;30.33;10.29;101706.19;5073486;28;20613;-49
2023/06/02 12:33:28;;;;;;;;;;;;;;;30.62;10.64;101701.34;5073234;28;19944;-51